Time;durP1;ratioP1;P1;durP2;ratioP2;P2;SDS_P1;SDS_P2;PMS_P1;PMS_P2;Temp;Humidity;BMP_temperature;BMP_pressure;BME280_temperature;BME280_humidity;BME280_pressure;Samples;Min_cycle;Max_cycle;Signal;HPM_P1;HPM_P2
2021/12/18 00:00:55;;;;;;;25.90;11.40;;;;;;;3.68;74.88;102281.73;107602;1294;22037;-74
2021/12/18 00:03:28;;;;;;;24.40;11.20;;;;;;;3.68;74.83;102284.14;107585;1294;21997;-74
2021/12/18 00:06:07;;;;;;;29.10;11.50;;;;;;;3.68;74.86;102283.98;107251;1297;23641;-75
2021/12/18 00:08:41;;;;;;;21.80;9.90;;;;;;;3.68;74.82;102282.60;106783;1301;22040;-74
2021/12/18 00:11:18;;;;;;;24.70;9.60;;;;;;;3.68;74.85;102280.30;106610;1304;23589;-75
2021/12/18 00:13:50;;;;;;;26.40;10.10;;;;;;;3.66;74.74;102280.58;106853;1301;22031;-75
2021/12/18 00:16:21;;;;;;;25.80;10.40;;;;;;;3.65;74.79;102282.20;107222;1294;24323;-74
2021/12/18 00:19:03;;;;;;;20.30;9.90;;;;;;;3.63;74.70;102281.77;107472;1294;22765;-74
2021/12/18 00:21:43;;;;;;;22.90;10.40;;;;;;;3.62;74.83;102285.67;107521;1294;23732;-74
2021/12/18 00:24:26;;;;;;;24.80;9.60;;;;;;;3.61;74.80;102293.56;106636;1301;24360;-74
2021/12/18 00:27:04;;;;;;;25.10;10.50;;;;;;;3.62;74.88;102287.08;107461;1293;21999;-75
2021/12/18 00:29:34;;;;;;;29.40;11.70;;;;;;;3.62;74.85;102293.69;107648;1292;23752;-75
2021/12/18 00:32:05;;;;;;;25.20;10.50;;;;;;;3.60;74.84;102306.17;107680;1292;23068;-75
2021/12/18 00:34:40;;;;;;;23.20;9.90;;;;;;;3.59;74.80;102304.63;107711;1293;23608;-74
2021/12/18 00:37:13;;;;;;;16.50;8.80;;;;;;;3.60;74.83;102306.17;107813;1292;22262;-75
2021/12/18 00:39:54;;;;;;;22.30;9.50;;;;;;;3.62;74.83;102310.79;107660;1292;23710;-74
2021/12/18 00:45:12;;;;;;;21.60;9.00;;;;;;;3.61;74.69;102308.89;108048;1288;23713;-75
2021/12/18 00:47:46;;;;;;;20.70;8.70;;;;;;;3.61;74.78;102310.48;108105;1288;22030;-75
2021/12/18 00:50:30;;;;;;;20.70;10.00;;;;;;;3.62;74.76;102316.16;107597;1294;22394;-75
2021/12/18 00:53:06;;;;;;;24.70;9.90;;;;;;;3.64;74.73;102315.05;107570;1294;22017;-74
2021/12/18 00:55:43;;;;;;;21.40;9.60;;;;;;;3.65;74.77;102317.05;107123;1297;23605;-74
2021/12/18 00:58:15;;;;;;;23.70;9.30;;;;;;;3.64;74.52;102316.59;107244;1298;22281;-75
2021/12/18 01:00:46;;;;;;;26.80;10.20;;;;;;;3.65;74.69;102312.33;106885;1303;22015;-74
2021/12/18 01:03:21;;;;;;;26.40;10.20;;;;;;;3.65;74.61;102315.80;106416;1307;22060;-74
2021/12/18 01:06:01;;;;;;;21.20;9.40;;;;;;;3.66;74.70;102310.90;106084;1310;22056;-74
2021/12/18 01:08:32;;;;;;;21.90;10.70;;;;;;;3.66;74.65;102312.14;105868;1310;23836;-75
2021/12/18 01:13:58;;;;;;;22.00;9.10;;;;;;;3.65;74.59;102321.20;105946;1306;23666;-74
2021/12/18 01:16:39;;;;;;;22.10;10.60;;;;;;;3.64;74.56;102322.17;106420;1307;22491;-74
2021/12/18 01:24:53;;;;;;;26.30;10.40;;;;;;;3.60;74.42;102314.70;107037;1295;24331;-75
2021/12/18 01:27:25;;;;;;;20.60;9.10;;;;;;;3.62;74.64;102313.17;107521;1295;23796;-74
2021/12/18 01:29:55;;;;;;;21.10;9.30;;;;;;;3.65;74.59;102304.52;107262;1294;22008;-75
2021/12/18 01:32:29;;;;;;;20.80;10.30;;;;;;;3.67;74.52;102300.55;107242;1294;23710;-75
2021/12/18 01:35:01;;;;;;;20.10;10.00;;;;;;;3.68;74.38;102303.48;107551;1294;22035;-75
2021/12/18 01:37:31;;;;;;;22.30;8.90;;;;;;;3.67;74.38;102308.40;107580;1294;22003;-75
2021/12/18 01:40:03;;;;;;;18.40;7.90;;;;;;;3.68;74.30;102312.58;107458;1294;22239;-75
2021/12/18 01:53:24;;;;;;;20.40;9.20;;;;;;;3.56;74.46;102308.63;107657;1291;243602;-74
2021/12/18 01:55:56;;;;;;;21.00;8.60;;;;;;;3.58;74.58;102309.39;107726;1291;22024;-75
2021/12/18 01:58:30;;;;;;;20.80;10.40;;;;;;;3.57;74.50;102322.52;107865;1291;23045;-75
2021/12/18 02:01:03;;;;;;;20.70;8.90;;;;;;;3.54;74.47;102325.96;107528;1295;23624;-74
2021/12/18 02:03:33;;;;;;;20.80;9.70;;;;;;;3.50;74.53;102324.90;106961;1304;22028;-74
2021/12/18 02:06:03;;;;;;;24.30;9.00;;;;;;;3.48;74.50;102323.63;107001;1301;22002;-74
2021/12/18 02:08:39;;;;;;;18.50;8.80;;;;;;;3.46;74.44;102322.48;106946;1304;23656;-74
2021/12/18 02:11:34;;;;;;;22.00;9.00;;;;;;;3.45;74.55;102321.66;107006;1300;22005;-74
2021/12/18 02:22:19;;;;;;;29.30;11.50;;;;;;;3.40;74.62;102319.13;107899;1288;21988;-74
2021/12/18 02:24:49;;;;;;;24.10;10.20;;;;;;;3.39;74.76;102319.72;108084;1288;23336;-74
2021/12/18 02:27:19;;;;;;;24.80;9.20;;;;;;;3.40;74.83;102320.72;107838;1288;22343;-74
2021/12/18 02:29:51;;;;;;;24.50;9.30;;;;;;;3.42;74.92;102321.30;108024;1288;22115;-74
2021/12/18 02:32:22;;;;;;;;;;;;;;;3.43;74.93;102315.36;108003;1287;22009;-74
2021/12/18 02:34:56;;;;;;;21.90;9.40;;;;;;;3.34;75.03;102307.39;108065;1288;22040;-74
2021/12/18 02:37:29;;;;;;;22.60;9.10;;;;;;;3.31;75.00;102304.57;107987;1288;23595;-74
2021/12/18 02:42:40;;;;;;;18.40;9.30;;;;;;;3.36;75.10;102307.33;107972;1288;21998;-74
2021/12/18 02:45:13;;;;;;;20.90;9.20;;;;;;;3.37;75.04;102311.64;107987;1288;23616;-75
2021/12/18 02:47:48;;;;;;;26.00;10.10;;;;;;;3.37;75.03;102305.02;108033;1288;22012;-74
2021/12/18 02:50:25;;;;;;;26.70;8.90;;;;;;;3.38;75.17;102299.56;107980;1288;22040;-74
2021/12/18 02:52:57;;;;;;;24.30;9.40;;;;;;;3.40;75.16;102303.31;108019;1288;22029;-73
2021/12/18 02:55:29;;;;;;;20.20;9.60;;;;;;;3.40;75.15;102295.79;108034;1288;21971;-74
2021/12/18 02:58:02;;;;;;;18.50;8.60;;;;;;;3.42;75.07;102285.41;108036;1288;22198;-74
2021/12/18 03:00:34;;;;;;;21.50;11.30;;;;;;;3.43;75.14;102289.92;108077;1288;22023;-75
2021/12/18 03:03:08;;;;;;;22.40;8.80;;;;;;;3.45;75.39;102293.80;107556;1294;21990;-74
2021/12/18 03:05:55;;;;;;;21.90;9.00;;;;;;;3.47;75.22;102289.71;106738;1301;23788;-75
2021/12/18 03:08:40;;;;;;;25.80;10.00;;;;;;;3.45;75.18;102284.05;106669;1299;22268;-75
2021/12/18 03:25:22;;;;;;;24.60;12.10;;;;;;;3.52;75.11;102285.27;107247;1297;23611;-74
2021/12/18 03:28:00;;;;;;;24.80;11.80;;;;;;;3.51;75.02;102280.80;107369;1296;22950;-74
2021/12/18 03:30:34;;;;;;;22.80;11.90;;;;;;;3.51;75.00;102279.55;106483;1303;22045;-74
2021/12/18 03:33:08;;;;;;;23.00;12.10;;;;;;;3.52;75.15;102273.09;106900;1302;23630;-74
2021/12/18 03:35:43;;;;;;;29.60;13.10;;;;;;;3.54;75.16;102269.89;106849;1303;22106;-77
2021/12/18 03:38:16;;;;;;;22.90;12.20;;;;;;;3.54;75.08;102266.23;106857;1301;23637;-74
2021/12/18 03:40:49;;;;;;;25.50;11.20;;;;;;;3.56;75.13;102263.34;106909;1303;22105;-74
2021/12/18 03:43:27;;;;;;;26.80;12.60;;;;;;;3.57;75.13;102263.45;106881;1296;22475;-74
2021/12/18 03:46:04;;;;;;;24.30;13.30;;;;;;;3.56;75.13;102265.77;107053;1299;23614;-74
2021/12/18 03:48:36;;;;;;;;;;;;;;;3.53;75.08;102261.91;107133;1292;21972;-74
2021/12/18 03:51:06;;;;;;;;;;;;;;;3.43;75.17;102260.81;107595;1292;23065;-74
2021/12/18 03:53:38;;;;;;;23.80;13.20;;;;;;;3.35;75.33;102262.25;107377;1294;22045;-74
2021/12/18 03:56:12;;;;;;;25.30;12.10;;;;;;;3.35;75.46;102258.97;107556;1292;22843;-75
2021/12/18 03:58:52;;;;;;;29.00;11.30;;;;;;;3.36;75.43;102256.63;107452;1292;22747;-75
2021/12/18 04:01:23;;;;;;;32.90;14.70;;;;;;;3.38;75.38;102256.17;107060;1298;23608;-75
2021/12/18 04:03:58;;;;;;;26.40;12.40;;;;;;;3.38;75.47;102259.34;107112;1294;21995;-75
2021/12/18 04:06:31;;;;;;;32.60;14.80;;;;;;;3.38;75.46;102260.02;106973;1300;22070;-75
2021/12/18 04:09:01;;;;;;;20.40;11.30;;;;;;;3.38;75.30;102253.55;107121;1300;23539;-75
2021/12/18 04:11:30;;;;;;;24.50;12.10;;;;;;;3.38;75.35;102255.33;107277;1298;22024;-75
2021/12/18 04:14:04;;;;;;;23.90;11.30;;;;;;;3.36;75.34;102258.01;107234;1298;22003;-75
2021/12/18 04:16:35;;;;;;;25.50;11.10;;;;;;;3.34;75.37;102265.77;107269;1298;23110;-75
2021/12/18 04:19:08;;;;;;;20.80;10.90;;;;;;;3.33;75.44;102268.10;107368;1294;22881;-75
2021/12/18 04:21:39;;;;;;;18.80;11.30;;;;;;;3.34;75.43;102269.10;107565;1294;22012;-75
2021/12/18 04:24:09;;;;;;;18.30;9.90;;;;;;;3.34;75.53;102260.73;107180;1292;23720;-74
2021/12/18 04:26:45;;;;;;;22.20;11.30;;;;;;;3.35;75.66;102250.39;107607;1292;23092;-74
2021/12/18 04:29:17;;;;;;;23.10;11.40;;;;;;;3.35;75.36;102246.22;107670;1292;22001;-74
2021/12/18 04:31:46;;;;;;;20.50;10.60;;;;;;;3.36;75.46;102244.80;107496;1297;23748;-75
2021/12/18 04:34:29;;;;;;;19.60;10.10;;;;;;;3.38;75.46;102238.80;107349;1298;22943;-75
2021/12/18 04:37:02;;;;;;;19.00;9.70;;;;;;;3.37;75.36;102228.88;107400;1298;23093;-75
2021/12/18 04:39:36;;;;;;;17.30;8.70;;;;;;;3.36;75.35;102229.15;107503;1298;22106;-75
2021/12/18 04:42:17;;;;;;;23.40;10.80;;;;;;;3.34;75.27;102220.86;107398;1294;22820;-75
2021/12/18 04:44:47;;;;;;;21.40;9.40;;;;;;;3.34;75.37;102217.20;107244;1298;22016;-75
2021/12/18 04:47:19;;;;;;;22.60;10.30;;;;;;;3.33;75.33;102217.98;107131;1300;22709;-75
2021/12/18 04:49:55;;;;;;;23.30;11.20;;;;;;;3.31;75.34;102225.20;107362;1295;23698;-75
2021/12/18 04:52:25;;;;;;;23.80;11.40;;;;;;;3.32;75.37;102222.02;107623;1295;22017;-75
2021/12/18 04:54:58;;;;;;;20.70;12.20;;;;;;;3.33;75.39;102215.71;107688;1294;22101;-74
2021/12/18 04:57:29;;;;;;;21.00;11.30;;;;;;;3.35;75.47;102207.90;107574;1294;23679;-75
2021/12/18 04:59:58;;;;;;;22.00;10.10;;;;;;;3.35;75.34;102213.52;107652;1295;22019;-75
2021/12/18 05:02:39;;;;;;;20.90;11.20;;;;;;;3.34;75.39;102215.11;107808;1288;25052;-75
2021/12/18 05:05:15;;;;;;;21.20;11.80;;;;;;;3.31;75.30;102222.56;107995;1288;23086;-75
2021/12/18 05:07:50;;;;;;;18.20;11.10;;;;;;;3.31;75.29;102232.34;107833;1288;22109;-74
2021/12/18 05:10:36;;;;;;;21.20;9.80;;;;;;;3.30;75.24;102237.42;107804;1291;23665;-75
2021/12/18 05:13:22;;;;;;;15.10;10.80;;;;;;;3.27;75.29;102236.68;108207;1288;21998;-75
2021/12/18 05:16:28;;;;;;;17.50;10.10;;;;;;;3.24;75.26;102229.54;107594;1292;22001;-76
2021/12/18 05:19:44;;;;;;;19.00;10.50;;;;;;;3.20;75.34;102225.52;107697;1292;22468;-75
2021/12/18 05:22:13;;;;;;;15.60;10.00;;;;;;;3.18;75.23;102229.45;107769;1292;21996;-75
2021/12/18 05:24:48;;;;;;;14.90;9.10;;;;;;;3.18;75.31;102236.09;107892;1292;22786;-75
2021/12/18 05:28:15;;;;;;;;;;;;;;;;;;;;;
2021/12/18 05:31:17;;;;;;;18.20;9.80;;;;;;;3.10;75.14;102250.58;107814;1292;22047;-75
2021/12/18 05:34:20;;;;;;;;;;;;;;;;;;;;;
2021/12/18 05:37:32;;;;;;;23.30;11.40;;;;;;;3.06;75.21;102246.60;108210;1288;23615;-75
2021/12/18 05:40:25;;;;;;;20.40;12.70;;;;;;;3.01;75.11;102239.16;107960;1288;23042;-75
2021/12/18 05:42:57;;;;;;;21.90;13.60;;;;;;;2.96;75.18;102234.16;108053;1288;22066;-75
2021/12/18 05:45:29;;;;;;;16.60;12.10;;;;;;;2.94;75.22;102232.53;108007;1288;22050;-75
2021/12/18 05:48:08;;;;;;;18.30;13.70;;;;;;;2.92;75.23;102233.50;107738;1294;23112;-75
2021/12/18 05:50:52;;;;;;;21.70;15.10;;;;;;;2.88;75.11;102243.94;107652;1294;22005;-75
2021/12/18 05:53:24;;;;;;;22.00;15.60;;;;;;;2.83;75.11;102236.68;107566;1294;23755;-75
2021/12/18 05:55:54;;;;;;;16.00;14.30;;;;;;;2.79;75.29;102231.45;107022;1299;23633;-75
2021/12/18 05:58:25;;;;;;;18.50;14.90;;;;;;;2.79;75.29;102233.73;107182;1300;22007;-75
2021/12/18 06:00:56;;;;;;;30.60;18.00;;;;;;;2.79;75.34;102228.69;107353;1298;22150;-75
2021/12/18 06:03:30;;;;;;;17.60;15.30;;;;;;;2.79;75.24;102228.34;107347;1296;22801;-75
2021/12/18 06:06:00;;;;;;;20.70;15.80;;;;;;;2.77;75.23;102228.43;107250;1292;22762;-75
2021/12/18 06:08:34;;;;;;;25.20;18.00;;;;;;;2.78;75.42;102225.92;107552;1297;22004;-74
2021/12/18 06:11:11;;;;;;;18.80;16.60;;;;;;;2.82;75.44;102225.94;107222;1296;23088;-75
2021/12/18 06:13:49;;;;;;;24.00;17.30;;;;;;;2.82;75.40;102223.34;107612;1292;22327;-74
2021/12/18 06:16:22;;;;;;;24.70;18.30;;;;;;;2.80;75.24;102218.55;107657;1292;23841;-75
2021/12/18 06:18:52;;;;;;;26.90;20.50;;;;;;;2.81;75.29;102219.91;107701;1292;23086;-73
2021/12/18 06:21:22;;;;;;;28.40;20.20;;;;;;;2.79;75.18;102221.02;107531;1296;22532;-74
2021/12/18 06:23:56;;;;;;;23.20;20.30;;;;;;;2.76;75.13;102217.51;107292;1295;22117;-74
2021/12/18 06:26:27;;;;;;;29.40;21.70;;;;;;;2.72;75.15;102217.17;107584;1292;22016;-75
2021/12/18 06:28:59;;;;;;;30.30;22.60;;;;;;;2.72;75.27;102209.71;107605;1292;22272;-74
2021/12/18 06:31:34;;;;;;;27.70;22.50;;;;;;;2.72;75.37;102211.61;107655;1292;22135;-73
2021/12/18 06:34:05;;;;;;;32.20;24.20;;;;;;;2.75;75.34;102210.27;107403;1298;22066;-74
2021/12/18 06:36:36;;;;;;;32.70;24.80;;;;;;;2.74;75.33;102210.98;107260;1295;22011;-73
2021/12/18 06:39:06;;;;;;;29.20;24.10;;;;;;;2.75;75.35;102210.06;107269;1294;21995;-73
2021/12/18 06:41:36;;;;;;;32.90;24.70;;;;;;;2.75;75.37;102213.58;106746;1300;23740;-73
2021/12/18 06:44:06;;;;;;;34.20;25.70;;;;;;;2.76;75.35;102208.50;106939;1300;22015;-74
2021/12/18 06:46:38;;;;;;;37.50;25.60;;;;;;;2.77;75.40;102210.02;106578;1304;22009;-73
2021/12/18 06:49:10;;;;;;;36.70;28.50;;;;;;;2.76;75.36;102209.52;106378;1304;22026;-73
2021/12/18 06:51:39;;;;;;;40.80;30.20;;;;;;;2.72;75.29;102217.52;106459;1303;23481;-73
2021/12/18 06:54:11;;;;;;;43.20;31.90;;;;;;;2.73;75.45;102211.43;106585;1302;23088;-73
2021/12/18 06:56:49;;;;;;;45.10;35.40;;;;;;;2.75;75.58;102209.20;106934;1302;23077;-74
2021/12/18 06:59:43;;;;;;;49.10;35.10;;;;;;;2.78;75.47;102207.48;106282;1306;22080;-74
2021/12/18 07:02:29;;;;;;;46.20;35.50;;;;;;;2.82;75.63;102209.44;106181;1306;23112;-79
2021/12/18 07:05:05;;;;;;;;;;;;;;;2.88;75.80;102206.73;106209;1303;21997;-75
2021/12/18 07:07:40;;;;;;;67.90;44.60;;;;;;;2.85;75.76;102204.93;106907;1297;24383;-74
2021/12/18 07:10:27;;;;;;;69.90;43.50;;;;;;;2.85;75.48;102207.58;107366;1298;22031;-75
2021/12/18 07:12:59;;;;;;;67.60;46.40;;;;;;;2.85;75.53;102209.11;106973;1303;23615;-74
2021/12/18 07:15:48;;;;;;;66.30;45.80;;;;;;;2.88;75.55;102210.91;106714;1302;22102;-74
2021/12/18 07:18:26;;;;;;;66.80;46.70;;;;;;;2.91;75.35;102209.02;106736;1303;22145;-74
2021/12/18 07:20:55;;;;;;;74.60;47.70;;;;;;;2.92;75.49;102204.23;106481;1303;23697;-74
2021/12/18 07:23:25;;;;;;;65.10;46.90;;;;;;;2.94;75.52;102203.61;106676;1298;22889;-75
2021/12/18 07:25:54;;;;;;;71.00;47.00;;;;;;;2.96;75.46;102197.98;107207;1298;22002;-75
2021/12/18 07:28:24;;;;;;;73.80;48.60;;;;;;;2.96;75.37;102194.48;107239;1296;22078;-74
2021/12/18 07:30:53;;;;;;;75.80;49.00;;;;;;;2.96;75.41;102191.71;107355;1294;23649;-74
2021/12/18 07:33:44;;;;;;;75.40;50.10;;;;;;;2.96;75.30;102187.88;108140;1288;22006;-74
2021/12/18 07:36:14;;;;;;;71.80;48.00;;;;;;;2.94;75.35;102187.81;107893;1288;21990;-74
2021/12/18 07:38:48;;;;;;;76.70;50.00;;;;;;;2.94;75.36;102182.05;108013;1288;22002;-74
2021/12/18 07:41:18;;;;;;;72.30;49.00;;;;;;;2.96;75.49;102183.52;107606;1294;22319;-75
2021/12/18 07:43:47;;;;;;;67.50;46.50;;;;;;;2.96;75.46;102181.95;107505;1294;23524;-73
2021/12/18 07:46:18;;;;;;;69.00;49.00;;;;;;;2.95;75.35;102167.72;106913;1301;22020;-74
2021/12/18 07:48:48;;;;;;;64.90;46.10;;;;;;;2.97;75.47;102164.00;106972;1301;23748;-73
2021/12/18 07:51:17;;;;;;;59.20;42.90;;;;;;;2.98;75.59;102168.29;106678;1303;23547;-73
2021/12/18 07:53:47;;;;;;;64.60;46.20;;;;;;;2.98;75.57;102168.61;106286;1307;23608;-73
2021/12/18 07:56:16;;;;;;;58.90;42.30;;;;;;;2.98;75.54;102159.77;105949;1309;22278;-73
2021/12/18 07:58:46;;;;;;;56.10;42.00;;;;;;;2.97;75.64;102150.41;106112;1304;22025;-73
2021/12/18 08:01:18;;;;;;;;;;;;;;;3.01;75.68;102159.64;106920;1304;21996;-73
2021/12/18 08:03:48;;;;;;;52.60;37.00;;;;;;;2.95;75.83;102165.80;106241;1303;22050;-76
2021/12/18 08:06:21;;;;;;;53.90;38.80;;;;;;;2.99;75.95;102162.16;106367;1303;22024;-74
2021/12/18 08:08:51;;;;;;;44.10;33.00;;;;;;;3.05;76.07;102154.89;106700;1303;23756;-74
2021/12/18 08:11:24;;;;;;;39.30;29.50;;;;;;;3.08;75.86;102151.43;106781;1303;23807;-74
2021/12/18 08:13:54;;;;;;;37.10;30.30;;;;;;;3.08;75.73;102158.04;106584;1301;22206;-74
2021/12/18 08:16:27;;;;;;;36.50;27.70;;;;;;;3.09;75.85;102159.21;106914;1300;22080;-74
2021/12/18 08:18:57;;;;;;;33.00;26.60;;;;;;;3.08;75.68;102154.89;107279;1294;22241;-78
2021/12/18 08:21:26;;;;;;;31.80;24.70;;;;;;;3.11;75.87;102154.96;107198;1292;22084;-75
2021/12/18 08:24:04;;;;;;;34.40;27.50;;;;;;;3.14;75.80;102153.73;107574;1294;22159;-74
2021/12/18 08:26:51;;;;;;;27.20;21.60;;;;;;;3.18;75.94;102153.55;107653;1292;21992;-75
2021/12/18 08:29:23;;;;;;;30.50;22.10;;;;;;;3.16;75.72;102160.95;107787;1292;22080;-74
2021/12/18 08:31:53;;;;;;;25.20;21.90;;;;;;;3.14;75.58;102164.73;107608;1292;22018;-74
2021/12/18 08:34:32;;;;;;;28.50;23.00;;;;;;;3.16;75.76;102160.27;107666;1292;23788;-74
2021/12/18 08:37:07;;;;;;;31.60;24.10;;;;;;;3.20;75.79;102165.64;107729;1292;22013;-74
2021/12/18 08:39:39;;;;;;;32.80;24.80;;;;;;;3.21;75.64;102168.23;107785;1292;23831;-74
2021/12/18 08:42:16;;;;;;;33.40;25.60;;;;;;;3.21;75.71;102163.52;107731;1292;22010;-73
2021/12/18 08:44:49;;;;;;;32.20;24.60;;;;;;;3.22;75.69;102172.88;107705;1291;23055;-74
2021/12/18 08:47:25;;;;;;;31.70;23.30;;;;;;;3.21;75.63;102173.60;107978;1288;23074;-74
2021/12/18 08:50:03;;;;;;;35.20;29.00;;;;;;;3.18;75.57;102170.59;107953;1288;22379;-74
2021/12/18 08:52:34;;;;;;;31.80;25.80;;;;;;;3.19;75.87;102164.97;108091;1288;23074;-74
2021/12/18 08:55:05;;;;;;;38.30;30.60;;;;;;;3.24;75.85;102161.95;107570;1291;23701;-74
2021/12/18 08:57:37;;;;;;;28.90;25.60;;;;;;;3.29;75.85;102170.93;107262;1298;22058;-75
2021/12/18 09:00:11;;;;;;;33.40;27.10;;;;;;;3.31;75.71;102174.86;107238;1297;22053;-75
2021/12/18 09:02:42;;;;;;;30.90;25.60;;;;;;;3.31;75.63;102161.28;107498;1297;22006;-75
2021/12/18 09:05:12;;;;;;;33.90;27.40;;;;;;;3.33;75.71;102158.91;107470;1297;22020;-75
2021/12/18 09:07:44;;;;;;;32.60;28.90;;;;;;;3.36;75.75;102152.81;107494;1297;22039;-75
2021/12/18 09:10:25;;;;;;;36.20;30.20;;;;;;;3.38;75.53;102153.10;107300;1298;22029;-75
2021/12/18 09:12:55;;;;;;;33.30;27.70;;;;;;;3.38;75.41;102151.17;106999;1300;23119;-74
2021/12/18 09:15:25;;;;;;;30.00;26.90;;;;;;;3.39;75.43;102149.74;107075;1300;22018;-74
2021/12/18 09:17:59;;;;;;;32.30;28.40;;;;;;;3.40;75.31;102153.31;107025;1299;22015;-74
2021/12/18 09:20:34;;;;;;;34.60;29.40;;;;;;;3.41;75.28;102149.77;107197;1300;22023;-74
2021/12/18 09:23:08;;;;;;;35.90;29.70;;;;;;;3.43;75.21;102144.85;107551;1292;23602;-75
2021/12/18 09:25:40;;;;;;;32.50;29.20;;;;;;;3.43;75.26;102143.96;107614;1292;23078;-73
2021/12/18 09:28:13;;;;;;;33.90;30.30;;;;;;;3.45;75.13;102145.40;107565;1292;22002;-74
2021/12/18 09:30:47;;;;;;;32.80;29.10;;;;;;;3.46;75.11;102142.39;107688;1292;22464;-74
2021/12/18 09:33:17;;;;;;;;;;;;;;;3.43;74.92;102139.05;107560;1292;21976;-74
2021/12/18 09:35:47;;;;;;;30.90;27.40;;;;;;;3.30;75.01;102131.17;107173;1298;23085;-74
2021/12/18 09:38:29;;;;;;;30.50;27.30;;;;;;;3.27;75.14;102121.55;107421;1294;22002;-74
2021/12/18 09:41:06;;;;;;;34.10;30.20;;;;;;;3.30;75.28;102115.15;107544;1294;23020;-75
2021/12/18 09:43:40;;;;;;;34.40;30.80;;;;;;;3.34;75.34;102113.41;107282;1298;22004;-75
2021/12/18 09:46:15;;;;;;;35.60;31.30;;;;;;;3.38;75.39;102117.38;107268;1298;22011;-75
2021/12/18 09:48:59;;;;;;;;;;;;;;;;;;;;;
2021/12/18 09:51:31;;;;;;;40.40;33.90;;;;;;;3.45;75.34;102118.93;107244;1298;23637;-74
2021/12/18 09:54:04;;;;;;;35.40;31.00;;;;;;;3.47;75.32;102108.71;107055;1292;223266;-74
2021/12/18 09:56:38;;;;;;;38.20;33.90;;;;;;;3.51;75.31;102103.44;107760;1292;22018;-74
2021/12/18 09:59:19;;;;;;;37.50;32.40;;;;;;;3.54;75.25;102096.88;107462;1295;22017;-74
2021/12/18 10:02:21;;;;;;;39.20;32.10;;;;;;;3.54;75.21;102093.71;107553;1294;23075;-74
2021/12/18 10:05:18;;;;;;;32.80;29.30;;;;;;;3.53;75.06;102093.42;107694;1293;22028;-74
2021/12/18 10:08:18;;;;;;;35.80;29.80;;;;;;;3.53;75.17;102087.48;107806;1293;24357;-75
2021/12/18 10:11:08;;;;;;;32.70;29.30;;;;;;;3.55;75.09;102076.77;107414;1295;23727;-75
2021/12/18 10:14:06;;;;;;;26.90;24.10;;;;;;;3.55;74.99;102065.62;107079;1299;22060;-75
2021/12/18 10:16:50;;;;;;;30.50;27.40;;;;;;;3.55;75.16;102048.20;106729;1304;23614;-74
2021/12/18 10:19:48;;;;;;;31.60;28.30;;;;;;;3.57;75.18;102044.46;106563;1304;22050;-75
2021/12/18 10:22:19;;;;;;;31.90;27.10;;;;;;;3.60;75.34;102047.94;106468;1304;22012;-74
2021/12/18 10:25:07;;;;;;;30.80;25.20;;;;;;;3.65;75.26;102037.95;106765;1301;22070;-75
2021/12/18 10:27:43;;;;;;;28.30;25.00;;;;;;;3.68;75.19;102026.77;107000;1301;23631;-75
2021/12/18 10:30:57;;;;;;;24.90;21.30;;;;;;;3.65;75.06;102026.58;107200;1298;23176;-75
2021/12/18 10:33:35;;;;;;;25.10;22.60;;;;;;;3.62;75.00;102026.91;107285;1298;23605;-75
2021/12/18 10:36:18;;;;;;;26.90;21.90;;;;;;;3.63;75.24;102030.20;107921;1292;23208;-75
2021/12/18 10:39:02;;;;;;;22.00;18.50;;;;;;;3.64;75.14;102031.04;107697;1288;22021;-75
2021/12/18 10:41:36;;;;;;;25.30;17.90;;;;;;;3.63;75.15;102045.16;108018;1288;22796;-75
2021/12/18 10:44:15;;;;;;;25.90;20.00;;;;;;;3.63;75.16;102051.98;108102;1288;21989;-74
2021/12/18 10:46:47;;;;;;;20.70;18.40;;;;;;;3.66;75.36;102048.14;107620;1294;22357;-74
2021/12/18 10:49:25;;;;;;;23.30;19.30;;;;;;;3.70;75.30;102032.61;107503;1292;23071;-75
2021/12/18 10:52:12;;;;;;;24.80;20.80;;;;;;;3.75;75.34;102022.20;107540;1295;23884;-75
2021/12/18 10:54:42;;;;;;;28.00;20.40;;;;;;;3.80;75.27;102018.30;107638;1295;22042;-75
2021/12/18 10:57:21;;;;;;;25.00;22.20;;;;;;;3.80;75.12;102015.50;107593;1295;23604;-74
2021/12/18 10:59:57;;;;;;;30.80;23.30;;;;;;;3.79;74.95;102009.13;107091;1301;22042;-75
2021/12/18 11:02:28;;;;;;;32.20;24.40;;;;;;;3.76;74.86;102001.61;107208;1300;22057;-75
2021/12/18 11:05:17;;;;;;;25.60;20.20;;;;;;;3.75;75.06;102004.25;107359;1294;23198;-75
2021/12/18 11:08:07;;;;;;;21.60;19.30;;;;;;;3.78;75.13;102009.15;107464;1298;21999;-74
2021/12/18 11:11:05;;;;;;;23.10;18.40;;;;;;;3.80;75.14;102012.39;106448;1303;24915;-73
2021/12/18 11:13:38;;;;;;;22.20;17.90;;;;;;;3.77;74.99;102018.61;106514;1303;23849;-74
2021/12/18 11:16:25;;;;;;;18.30;15.70;;;;;;;3.78;75.13;102017.02;106501;1303;22171;-74
2021/12/18 11:19:37;;;;;;;21.80;16.70;;;;;;;3.74;74.91;102008.16;105902;1311;23735;-75
2021/12/18 11:22:18;;;;;;;20.90;17.40;;;;;;;3.73;75.07;101995.86;106016;1309;22028;-75
2021/12/18 11:25:51;;;;;;;25.20;19.40;;;;;;;3.72;75.07;101984.91;106025;1305;23101;-74
2021/12/18 11:28:52;;;;;;;;;;;;;;;;;;;;;
2021/12/18 11:31:43;;;;;;;23.00;19.30;;;;;;;3.74;75.20;101991.61;107262;1298;22492;-75
2021/12/18 11:34:18;;;;;;;;;;;;;;;3.74;75.17;101989.70;106863;1304;22003;-76
2021/12/18 11:37:05;;;;;;;28.40;22.40;;;;;;;3.66;75.32;101987.91;106968;1298;23005;-74
2021/12/18 11:39:43;;;;;;;26.50;21.50;;;;;;;3.67;75.33;101982.61;107037;1299;22038;-74
2021/12/18 11:42:30;;;;;;;25.30;21.30;;;;;;;3.71;75.50;101985.31;106797;1304;22020;-74
2021/12/18 11:45:57;;;;;;;;;;;;;;;3.73;75.41;101980.16;107184;1299;22098;-75
2021/12/18 11:48:21;;;;;;;41.70;30.50;;;;;;;3.67;75.54;101966.05;107585;1295;22037;-74
2021/12/18 11:51:16;;;;;;;52.90;38.70;;;;;;;3.69;75.61;101957.20;107163;1298;22475;-75
2021/12/18 11:54:55;;;;;;;36.80;31.50;;;;;;;3.72;75.53;101954.27;107538;1297;22774;-78
2021/12/18 11:57:45;;;;;;;32.20;27.60;;;;;;;3.78;75.80;101947.67;106660;1303;22553;-78
2021/12/18 12:00:23;;;;;;;29.10;25.40;;;;;;;3.86;75.81;101942.88;107137;1297;22014;-79
2021/12/18 12:03:44;;;;;;;28.00;25.00;;;;;;;3.92;75.80;101940.07;107682;1296;23056;-77
2021/12/18 12:06:42;;;;;;;27.80;24.80;;;;;;;3.98;75.75;101943.07;107920;1297;23797;-78
2021/12/18 12:10:34;;;;;;;;;;;;;;;;;;;;;
2021/12/18 12:13:58;;;;;;;33.20;27.60;;;;;;;4.03;75.50;101927.25;107457;1297;22145;-77
2021/12/18 12:16:46;;;;;;;;;;;;;;;4.10;75.64;101921.11;107591;1297;22063;-76
2021/12/18 12:19:21;;;;;;;32.00;28.70;;;;;;;4.06;75.54;101915.61;107518;1297;23080;-78
2021/12/18 12:21:56;;;;;;;26.90;24.20;;;;;;;4.11;75.60;101901.02;107512;1297;22073;-76
2021/12/18 12:24:29;;;;;;;29.20;26.10;;;;;;;4.15;75.41;101894.88;107476;1293;23049;-77
2021/12/18 12:27:32;;;;;;;25.50;23.00;;;;;;;4.18;75.43;101905.48;107662;1295;22255;-78
2021/12/18 12:30:25;;;;;;;26.20;23.50;;;;;;;4.20;75.11;101912.89;107466;1297;23049;-77
2021/12/18 12:33:07;;;;;;;23.50;21.30;;;;;;;4.20;75.03;101912.71;107860;1288;22512;-78
2021/12/18 12:36:13;;;;;;;24.90;21.90;;;;;;;4.21;75.18;101917.33;108138;1291;22877;-77
2021/12/18 12:38:58;;;;;;;26.70;24.10;;;;;;;4.23;75.19;101921.40;108334;1288;23058;-78
2021/12/18 12:41:52;;;;;;;23.70;21.30;;;;;;;4.28;75.28;101919.77;108210;1288;23608;-78
2021/12/18 12:44:26;;;;;;;25.70;22.80;;;;;;;4.30;75.05;101908.66;107941;1288;21989;-78
2021/12/18 12:47:19;;;;;;;30.20;25.20;;;;;;;4.32;75.10;101911.14;108414;1288;22028;-79
2021/12/18 12:49:58;;;;;;;27.50;24.80;;;;;;;4.33;74.92;101903.58;108335;1288;22004;-77
2021/12/18 12:52:30;;;;;;;28.80;25.80;;;;;;;4.36;75.04;101896.23;108203;1288;22007;-76
2021/12/18 12:55:04;;;;;;;27.30;24.50;;;;;;;4.39;75.05;101892.06;107934;1288;23092;-77
2021/12/18 12:57:36;;;;;;;25.30;22.60;;;;;;;4.41;74.91;101891.08;108236;1288;23137;-78